createdAt,value
2018-03-24T00:00:27.286Z,4.06
2018-03-24T00:02:54.898Z,3.96
2018-03-24T00:05:22.394Z,3.80
2018-03-24T00:07:49.827Z,3.70
2018-03-24T00:10:17.428Z,3.55
2018-03-24T00:12:44.947Z,3.40
2018-03-24T00:15:12.399Z,3.22
2018-03-24T00:17:39.983Z,3.14
2018-03-24T00:20:07.476Z,3.01
2018-03-24T00:22:34.975Z,2.89
2018-03-24T00:25:02.427Z,2.83
2018-03-24T00:27:30.050Z,2.74
2018-03-24T00:29:57.561Z,2.63
2018-03-24T00:39:23.080Z,2.29
2018-03-24T00:41:50.538Z,2.23
2018-03-24T00:44:17.984Z,2.14
2018-03-24T00:46:45.474Z,2.06
2018-03-24T00:49:12.942Z,2.01
2018-03-24T00:51:40.383Z,2.04
2018-03-24T00:54:08.998Z,2.04
2018-03-24T00:56:36.462Z,2.04
2018-03-24T00:59:03.957Z,1.98
2018-03-24T01:01:31.402Z,1.94
2018-03-24T01:03:58.886Z,1.96
2018-03-24T01:06:26.364Z,1.95
2018-03-24T01:08:53.840Z,1.97
2018-03-24T01:11:21.298Z,1.97
2018-03-24T01:13:48.746Z,1.90
2018-03-24T01:16:16.188Z,1.84
2018-03-24T01:18:43.634Z,1.82
2018-03-24T01:21:11.208Z,1.72
2018-03-24T01:23:38.764Z,1.66
2018-03-24T01:26:06.282Z,1.62
2018-03-24T01:28:33.728Z,1.58
2018-03-24T01:31:01.177Z,1.55
2018-03-24T01:33:28.711Z,1.52
2018-03-24T01:35:56.160Z,1.52
2018-03-24T01:38:23.597Z,1.48
2018-03-24T01:40:51.084Z,1.49
2018-03-24T01:43:18.544Z,1.50
2018-03-24T01:45:45.986Z,1.49
2018-03-24T01:48:13.445Z,1.42
2018-03-24T01:50:41.003Z,1.39
2018-03-24T01:53:08.446Z,1.37
2018-03-24T01:55:36.037Z,1.33
2018-03-24T01:58:03.566Z,1.34
2018-03-24T02:00:31.147Z,1.32
2018-03-24T02:02:58.582Z,1.31
2018-03-24T02:05:26.092Z,1.26
2018-03-24T02:07:53.555Z,1.30
2018-03-24T02:10:21.073Z,1.30
2018-03-24T02:12:48.510Z,1.31
2018-03-24T02:15:16.026Z,1.31
2018-03-24T02:17:43.495Z,1.31
2018-03-24T02:20:10.938Z,1.29
2018-03-24T02:22:38.418Z,1.28
2018-03-24T02:25:05.897Z,1.21
2018-03-24T02:27:33.412Z,1.16
2018-03-24T02:30:00.919Z,1.16
2018-03-24T02:32:28.418Z,1.15
2018-03-24T02:34:55.865Z,1.14
2018-03-24T02:37:23.309Z,1.12
2018-03-24T02:39:50.843Z,1.14
2018-03-24T02:42:18.378Z,1.09
2018-03-24T02:44:45.819Z,1.06
2018-03-24T02:47:13.271Z,1.05
2018-03-24T02:49:40.757Z,0.97
2018-03-24T02:52:08.218Z,0.91
2018-03-24T02:54:35.702Z,0.88
2018-03-24T02:57:03.258Z,0.86
2018-03-24T02:59:30.740Z,0.80
2018-03-24T03:01:58.202Z,0.73
2018-03-24T03:04:25.655Z,0.68
2018-03-24T03:06:53.108Z,0.64
2018-03-24T03:09:20.563Z,0.59
2018-03-24T03:11:48.030Z,0.58
2018-03-24T03:14:15.518Z,0.51
2018-03-24T03:16:42.954Z,0.51
2018-03-24T03:19:10.407Z,0.50
2018-03-24T03:21:49.750Z,0.47
2018-03-24T03:24:17.212Z,0.45
2018-03-24T03:26:44.905Z,0.45
2018-03-24T03:29:12.355Z,0.44
2018-03-24T03:31:39.850Z,0.42
2018-03-24T03:34:07.337Z,0.38
2018-03-24T03:36:34.896Z,0.35
2018-03-24T03:39:02.394Z,0.31
2018-03-24T03:41:29.920Z,0.31
2018-03-24T03:43:57.399Z,0.31
2018-03-24T03:46:24.888Z,0.31
2018-03-24T03:48:52.389Z,0.25
2018-03-24T03:51:19.856Z,0.26
2018-03-24T03:53:47.502Z,0.28
2018-03-24T03:56:14.982Z,0.24
2018-03-24T03:58:42.439Z,0.26
2018-03-24T04:01:10.023Z,0.22
2018-03-24T04:03:37.517Z,0.26
2018-03-24T04:06:04.966Z,0.25
2018-03-24T04:08:32.427Z,0.29
2018-03-24T04:11:00.023Z,0.31
2018-03-24T04:13:27.463Z,0.33
2018-03-24T04:15:54.928Z,0.28
2018-03-24T04:18:22.376Z,0.27
2018-03-24T04:20:49.871Z,0.29
2018-03-24T04:23:17.345Z,0.26
2018-03-24T04:25:44.957Z,0.26
2018-03-24T04:28:12.403Z,0.25
2018-03-24T04:30:40.003Z,0.30
2018-03-24T04:33:07.465Z,0.28
2018-03-24T04:35:34.948Z,0.30
2018-03-24T04:38:02.423Z,0.34
2018-03-24T04:40:29.923Z,0.29
2018-03-24T04:42:57.376Z,0.27
2018-03-24T04:45:24.892Z,0.26
2018-03-24T04:47:52.953Z,0.25
2018-03-24T04:50:20.410Z,0.22
2018-03-24T04:52:47.879Z,0.26
2018-03-24T04:55:15.387Z,0.26
2018-03-24T04:57:43.103Z,0.26
2018-03-24T05:00:10.568Z,0.20
2018-03-24T05:02:38.006Z,0.14
2018-03-24T05:05:05.526Z,0.11
2018-03-24T05:07:32.992Z,0.02
2018-03-24T05:10:00.509Z,0.10
2018-03-24T05:12:27.946Z,0.01
2018-03-24T05:14:55.425Z,-0.02
2018-03-24T05:17:22.905Z,-0.04
2018-03-24T05:19:50.345Z,-0.01
2018-03-24T05:22:18.658Z,-0.02
2018-03-24T05:24:46.243Z,-0.03
2018-03-24T05:27:13.750Z,0.04
2018-03-24T05:29:41.239Z,0.13
2018-03-24T05:32:08.698Z,0.31
2018-03-24T05:34:36.152Z,0.36
2018-03-24T05:37:03.588Z,0.42
2018-03-24T05:39:31.077Z,0.44
2018-03-24T05:41:58.536Z,0.48
2018-03-24T05:44:25.989Z,0.56
2018-03-24T05:46:53.656Z,0.62
2018-03-24T05:49:21.123Z,0.64
2018-03-24T05:51:49.917Z,0.67
2018-03-24T05:54:17.405Z,0.74
2018-03-24T05:56:44.949Z,0.83
2018-03-24T05:59:12.410Z,0.88
2018-03-24T06:01:39.905Z,0.97
2018-03-24T06:04:07.358Z,1.03
2018-03-24T06:06:35.112Z,1.06
2018-03-24T06:09:03.851Z,1.12
2018-03-24T06:11:31.612Z,1.16
2018-03-24T06:13:59.103Z,1.23
2018-03-24T06:16:26.560Z,1.30
2018-03-24T06:18:54.006Z,1.37
2018-03-24T06:21:21.465Z,1.47
2018-03-24T06:23:48.946Z,1.56
2018-03-24T06:26:16.415Z,1.66
2018-03-24T06:28:43.903Z,1.73
2018-03-24T06:31:26.885Z,1.83
2018-03-24T06:33:54.351Z,1.99
2018-03-24T06:36:25.447Z,2.11
2018-03-24T06:38:52.936Z,2.23
2018-03-24T06:41:20.422Z,2.32
2018-03-24T06:43:47.881Z,2.41
2018-03-24T06:46:15.343Z,2.55
2018-03-24T06:48:42.779Z,2.69
2018-03-24T06:51:10.230Z,2.84
2018-03-24T06:53:37.857Z,2.90
2018-03-24T06:56:05.316Z,3.09
2018-03-24T06:58:32.819Z,3.32
2018-03-24T07:01:00.264Z,3.39
2018-03-24T07:03:27.719Z,3.54
2018-03-24T07:05:55.211Z,3.57
2018-03-24T07:08:22.676Z,3.82
2018-03-24T07:10:50.131Z,3.91
2018-03-24T07:13:17.584Z,4.15
2018-03-24T07:15:45.054Z,4.15
2018-03-24T07:18:12.775Z,4.39
2018-03-24T07:20:41.015Z,4.46
2018-03-24T07:23:08.543Z,4.63
2018-03-24T07:25:36.046Z,4.70
2018-03-24T07:28:03.599Z,4.85
2018-03-24T07:30:31.390Z,5.01
2018-03-24T07:32:58.848Z,5.12
2018-03-24T07:35:32.139Z,5.23
2018-03-24T07:37:59.645Z,5.37
2018-03-24T07:40:27.255Z,5.65
2018-03-24T07:42:54.766Z,5.75
2018-03-24T07:45:23.758Z,5.93
2018-03-24T07:48:16.529Z,6.08
2018-03-24T07:50:49.905Z,6.25
2018-03-24T07:53:18.041Z,6.13
2018-03-24T07:55:45.489Z,6.35
2018-03-24T07:58:12.942Z,6.40
2018-03-24T08:00:40.387Z,6.60
2018-03-24T08:03:07.849Z,6.74
2018-03-24T08:05:35.407Z,6.84
2018-03-24T08:08:02.909Z,7.01
2018-03-24T08:10:30.374Z,7.08
2018-03-24T08:12:57.874Z,7.18
2018-03-24T08:15:25.383Z,7.05
2018-03-24T08:17:52.881Z,7.34
2018-03-24T08:20:20.354Z,7.48
2018-03-24T08:22:47.829Z,7.55
2018-03-24T08:25:15.310Z,7.65
2018-03-24T08:27:42.773Z,7.66
2018-03-24T08:30:10.586Z,7.85
2018-03-24T08:32:38.082Z,8.11
2018-03-24T08:35:05.554Z,8.37
2018-03-24T08:37:33.059Z,8.22
2018-03-24T08:40:00.551Z,8.13
2018-03-24T08:42:28.024Z,8.28
2018-03-24T08:44:55.482Z,8.42
2018-03-24T08:47:22.962Z,8.45
2018-03-24T08:49:50.420Z,8.49
2018-03-24T08:52:17.889Z,8.76
2018-03-24T08:54:45.345Z,8.97
2018-03-24T08:57:12.860Z,9.16
2018-03-24T08:59:40.459Z,9.12
2018-03-24T09:02:07.914Z,9.44
2018-03-24T09:04:36.576Z,9.26
2018-03-24T09:07:04.018Z,9.39
2018-03-24T09:09:31.506Z,9.60
2018-03-24T09:11:58.972Z,9.73
2018-03-24T09:14:26.461Z,9.76
2018-03-24T09:16:54.134Z,9.81
2018-03-24T09:19:21.752Z,9.69
2018-03-24T09:21:49.201Z,9.72
2018-03-24T09:24:17.599Z,9.84
2018-03-24T09:26:45.183Z,9.87
2018-03-24T09:29:12.622Z,10.10
2018-03-24T09:31:40.190Z,10.09
2018-03-24T09:34:07.664Z,10.24
2018-03-24T09:36:35.144Z,10.33
2018-03-24T09:39:02.601Z,10.38
2018-03-24T09:41:30.070Z,10.27
2018-03-24T09:43:57.530Z,10.44
2018-03-24T09:46:24.998Z,10.61
2018-03-24T09:48:52.443Z,10.70
2018-03-24T09:51:19.941Z,10.74
2018-03-24T09:53:47.395Z,10.54
2018-03-24T09:56:14.830Z,10.74
2018-03-24T09:58:42.313Z,10.94
2018-03-24T10:01:09.822Z,11.15
2018-03-24T10:03:37.323Z,11.40
2018-03-24T10:06:05.540Z,11.51
2018-03-24T10:08:33.020Z,11.60
2018-03-24T10:11:00.487Z,11.47
2018-03-24T10:13:27.941Z,11.64
2018-03-24T10:15:55.440Z,11.59
2018-03-24T10:18:22.993Z,11.39
2018-03-24T10:24:13.251Z,11.63
2018-03-24T10:26:40.713Z,11.44
2018-03-24T10:29:08.167Z,11.73
2018-03-24T10:31:35.617Z,11.79
2018-03-24T10:34:03.060Z,11.91
2018-03-24T10:36:30.512Z,11.70
2018-03-24T10:38:57.966Z,11.52
2018-03-24T10:41:25.435Z,11.57
2018-03-24T10:43:52.891Z,11.53
2018-03-24T10:46:20.330Z,11.65
2018-03-24T10:48:47.787Z,11.83
2018-03-24T10:51:15.225Z,11.72
2018-03-24T10:53:42.690Z,11.88
2018-03-24T10:56:10.128Z,11.94
2018-03-24T10:58:37.632Z,11.73
2018-03-24T11:01:10.627Z,11.89
2018-03-24T11:03:38.967Z,12.00
2018-03-24T11:06:06.409Z,12.07
2018-03-24T11:08:33.841Z,12.30
2018-03-24T11:11:01.398Z,12.19
2018-03-24T11:13:28.878Z,12.08
2018-03-24T11:15:56.338Z,12.27
2018-03-24T11:18:23.802Z,12.50
2018-03-24T11:20:51.259Z,12.38
2018-03-24T11:23:18.699Z,12.66
2018-03-24T11:25:46.161Z,12.80
2018-03-24T11:28:13.618Z,13.06
2018-03-24T11:30:41.250Z,12.95
2018-03-24T11:33:08.821Z,13.46
2018-03-24T11:35:36.369Z,13.65
2018-03-24T11:38:03.843Z,13.63
2018-03-24T11:40:31.290Z,13.65
2018-03-24T11:42:58.767Z,14.06
2018-03-24T11:45:26.216Z,14.25
2018-03-24T11:47:53.673Z,14.61
2018-03-24T11:50:21.133Z,15.04
2018-03-24T11:52:48.592Z,15.48
2018-03-24T11:55:16.065Z,16.21
2018-03-24T11:57:43.940Z,16.31
2018-03-24T12:00:11.782Z,16.43
2018-03-24T12:02:39.424Z,16.84
2018-03-24T12:05:07.145Z,17.57
2018-03-24T12:07:34.981Z,17.65
2018-03-24T12:10:02.463Z,18.46
2018-03-24T12:12:30.430Z,18.67
2018-03-24T12:14:58.683Z,19.89
2018-03-24T12:17:27.093Z,21.70
2018-03-24T12:19:54.772Z,22.66
2018-03-24T12:22:22.457Z,22.43
2018-03-24T12:24:50.026Z,22.53
2018-03-24T12:27:17.660Z,23.94
2018-03-24T12:29:45.519Z,25.19
2018-03-24T12:32:13.838Z,25.41
2018-03-24T12:34:42.930Z,25.43
2018-03-24T12:37:10.808Z,27.16
2018-03-24T12:39:38.587Z,26.52
2018-03-24T12:42:06.232Z,28.16
2018-03-24T12:44:33.849Z,26.87
2018-03-24T12:47:01.429Z,26.69
2018-03-24T12:49:28.899Z,28.30
2018-03-24T12:51:56.535Z,27.83
2018-03-24T12:54:24.095Z,30.37
2018-03-24T12:56:51.928Z,31.25
2018-03-24T12:59:20.893Z,31.25
2018-03-24T13:01:48.482Z,30.39
2018-03-24T13:04:16.219Z,31.04
2018-03-24T13:06:44.378Z,31.17
2018-03-24T13:09:12.103Z,31.55
2018-03-24T13:11:40.289Z,30.73
2018-03-24T13:14:08.004Z,30.53
2018-03-24T13:16:35.495Z,31.39
2018-03-24T13:19:02.933Z,30.54
2018-03-24T13:21:30.392Z,31.90
2018-03-24T13:23:57.869Z,33.53
2018-03-24T13:26:25.490Z,35.04
2018-03-24T13:28:52.942Z,32.14
2018-03-24T13:31:20.394Z,32.63
2018-03-24T13:33:47.913Z,32.48
2018-03-24T13:36:15.543Z,34.36
2018-03-24T13:38:43.467Z,34.75
2018-03-24T13:41:11.335Z,34.77
2018-03-24T13:43:39.185Z,34.20
2018-03-24T13:46:06.777Z,35.83
2018-03-24T13:48:34.626Z,36.01
2018-03-24T13:51:10.522Z,34.95
2018-03-24T13:53:38.194Z,33.57
2018-03-24T13:56:05.948Z,33.95
2018-03-24T13:58:33.630Z,34.20
2018-03-24T14:01:01.308Z,34.19
2018-03-24T14:03:28.834Z,33.70
2018-03-24T14:05:57.317Z,34.11
2018-03-24T14:08:24.894Z,34.74
2018-03-24T14:10:52.734Z,35.00
2018-03-24T14:13:20.560Z,35.01
2018-03-24T14:15:48.803Z,34.81
2018-03-24T14:18:16.494Z,33.56
2018-03-24T14:20:44.116Z,33.02
2018-03-24T14:23:11.779Z,34.25
2018-03-24T14:25:39.584Z,33.47
2018-03-24T14:28:07.160Z,33.96
2018-03-24T14:30:34.734Z,33.32
2018-03-24T14:33:02.392Z,32.59
2018-03-24T14:35:30.602Z,32.81
2018-03-24T14:37:58.895Z,33.74
2018-03-24T14:43:04.955Z,33.85
2018-03-24T14:45:32.454Z,33.24
2018-03-24T14:47:59.931Z,33.88
2018-03-24T14:50:27.407Z,32.96
2018-03-24T14:52:54.861Z,33.00
2018-03-24T14:55:22.351Z,31.29
2018-03-24T14:57:49.813Z,32.42
2018-03-24T15:00:17.263Z,32.58
2018-03-24T15:02:45.045Z,32.91
2018-03-24T15:05:12.543Z,31.78
2018-03-24T15:07:40.085Z,30.66
2018-03-24T15:10:07.567Z,29.39
2018-03-24T15:12:35.057Z,30.19
2018-03-24T15:15:02.511Z,30.53
2018-03-24T15:17:30.100Z,31.53
2018-03-24T15:19:57.566Z,31.20
2018-03-24T15:22:25.107Z,31.29
2018-03-24T15:24:52.590Z,29.85
2018-03-24T15:27:20.061Z,29.89
2018-03-24T15:32:52.305Z,28.72
2018-03-24T15:35:33.678Z,28.43
2018-03-24T15:38:01.150Z,29.61
2018-03-24T15:40:28.603Z,29.21
2018-03-24T15:42:56.162Z,30.01
2018-03-24T15:45:24.478Z,29.10
2018-03-24T15:47:52.335Z,29.40
2018-03-24T15:50:19.790Z,29.67
2018-03-24T15:52:47.268Z,30.47
2018-03-24T15:55:14.743Z,30.30
2018-03-24T15:57:42.359Z,28.49
2018-03-24T16:00:09.814Z,30.15
2018-03-24T16:02:37.262Z,28.97
2018-03-24T16:05:04.722Z,28.23
2018-03-24T16:07:32.175Z,26.81
2018-03-24T16:09:59.662Z,27.59
2018-03-24T16:12:27.135Z,27.89
2018-03-24T16:14:54.636Z,26.47
2018-03-24T16:17:22.186Z,24.84
2018-03-24T16:19:49.648Z,25.60
2018-03-24T16:22:17.187Z,25.87
2018-03-24T16:24:44.665Z,25.13
2018-03-24T16:27:12.126Z,25.07
2018-03-24T16:29:39.803Z,25.81
2018-03-24T16:32:07.342Z,24.00
2018-03-24T16:34:35.823Z,24.25
2018-03-24T16:37:03.326Z,23.20
2018-03-24T16:39:30.766Z,23.41
2018-03-24T16:41:58.281Z,23.75
2018-03-24T16:44:25.772Z,22.89
2018-03-24T16:46:53.215Z,22.93
2018-03-24T16:49:20.689Z,22.55
2018-03-24T16:51:48.186Z,21.62
2018-03-24T16:54:15.660Z,21.41
2018-03-24T16:56:43.106Z,19.84
2018-03-24T16:59:10.624Z,18.01
2018-03-24T17:01:38.208Z,17.12
2018-03-24T17:04:05.824Z,16.05
2018-03-24T17:06:33.267Z,15.35
2018-03-24T17:09:00.716Z,14.84
2018-03-24T17:11:28.211Z,14.43
2018-03-24T17:13:57.222Z,13.93
2018-03-24T17:16:24.964Z,13.49
2018-03-24T17:18:52.545Z,12.84
2018-03-24T17:21:20.104Z,12.41
2018-03-24T17:23:47.765Z,12.18
2018-03-24T17:26:15.280Z,11.83
2018-03-24T17:28:42.784Z,11.50
2018-03-24T17:31:10.859Z,11.16
2018-03-24T17:33:38.692Z,10.95
2018-03-24T17:36:07.102Z,10.79
2018-03-24T17:38:35.246Z,10.56
2018-03-24T17:41:02.899Z,10.28
2018-03-24T17:43:30.513Z,10.07
2018-03-24T17:45:58.044Z,9.93
2018-03-24T17:48:25.698Z,9.67
2018-03-24T17:50:53.232Z,9.41
2018-03-24T17:53:20.682Z,9.26
2018-03-24T17:55:48.267Z,9.10
2018-03-24T17:58:15.776Z,9.00
2018-03-24T18:00:43.887Z,8.82
2018-03-24T18:03:11.419Z,8.74
2018-03-24T18:05:39.469Z,8.66
2018-03-24T18:08:07.327Z,8.55
2018-03-24T18:10:35.179Z,8.43
2018-03-24T18:13:03.123Z,8.36
2018-03-24T18:15:30.940Z,8.21
2018-03-24T18:17:58.517Z,8.11
2018-03-24T18:20:26.021Z,8.11
2018-03-24T18:22:53.584Z,7.96
2018-03-24T18:25:21.068Z,7.92
2018-03-24T18:27:48.658Z,7.87
2018-03-24T18:30:17.770Z,7.80
2018-03-24T18:32:47.682Z,7.69
2018-03-24T18:35:17.977Z,7.58
2018-03-24T18:37:46.057Z,7.58
2018-03-24T18:40:14.824Z,7.43
2018-03-24T18:42:47.896Z,7.35
2018-03-24T18:45:19.006Z,7.29
2018-03-24T18:47:48.418Z,7.23
2018-03-24T18:50:20.725Z,7.15
2018-03-24T18:53:02.592Z,7.09
2018-03-24T18:55:31.226Z,7.02
2018-03-24T18:57:58.683Z,6.97
2018-03-24T19:00:26.587Z,6.91
2018-03-24T19:02:54.055Z,6.86
2018-03-24T19:05:21.496Z,6.79
2018-03-24T19:07:48.954Z,6.77
2018-03-24T19:10:16.493Z,6.69
2018-03-24T19:12:43.994Z,6.61
2018-03-24T19:15:12.435Z,6.57
2018-03-24T19:17:39.913Z,6.47
2018-03-24T19:20:07.407Z,6.36
2018-03-24T19:22:34.823Z,6.30
2018-03-24T19:25:02.444Z,6.23
2018-03-24T19:27:29.943Z,6.21
2018-03-24T19:29:57.466Z,6.18
2018-03-24T19:32:24.959Z,6.15
2018-03-24T19:34:52.474Z,6.13
2018-03-24T19:37:20.021Z,6.06
2018-03-24T19:39:47.513Z,6.00
2018-03-24T19:42:14.989Z,5.90
2018-03-24T19:44:42.464Z,5.92
2018-03-24T19:47:09.911Z,5.82
2018-03-24T19:49:37.407Z,5.80
2018-03-24T19:52:04.887Z,5.77
2018-03-24T19:54:32.378Z,5.66
2018-03-24T19:56:59.836Z,5.63
2018-03-24T19:59:27.295Z,5.59
2018-03-24T20:01:55.524Z,5.55
2018-03-24T20:04:23.158Z,5.40
2018-03-24T20:06:50.604Z,5.31
2018-03-24T20:09:18.107Z,5.25
2018-03-24T20:11:45.567Z,5.17
2018-03-24T20:14:13.051Z,5.03
2018-03-24T20:16:40.511Z,4.96
2018-03-24T20:19:08.022Z,4.92
2018-03-24T20:21:35.564Z,4.90
2018-03-24T20:24:03.214Z,4.82
2018-03-24T20:26:30.656Z,4.88
2018-03-24T20:28:58.113Z,4.94
2018-03-24T20:31:25.577Z,4.96
2018-03-24T20:33:53.028Z,4.98
2018-03-24T20:36:20.467Z,5.02
2018-03-24T20:38:47.963Z,5.01
2018-03-24T20:41:15.427Z,5.02
2018-03-24T20:43:42.956Z,4.96
2018-03-24T20:46:10.413Z,4.92
2018-03-24T20:48:37.854Z,4.88
2018-03-24T20:51:05.310Z,4.90
2018-03-24T20:53:32.771Z,4.87
2018-03-24T20:56:00.268Z,4.84
2018-03-24T20:58:28.088Z,4.82
2018-03-24T21:00:55.590Z,4.73
2018-03-24T21:03:23.035Z,4.75
2018-03-24T21:05:50.499Z,4.72
2018-03-24T21:08:17.958Z,4.65
2018-03-24T21:10:45.411Z,4.64
2018-03-24T21:13:12.915Z,4.54
2018-03-24T21:15:40.324Z,4.47
2018-03-24T21:18:08.319Z,4.42
2018-03-24T21:20:35.775Z,4.34
2018-03-24T21:23:03.242Z,4.35
2018-03-24T21:25:30.804Z,4.29
2018-03-24T21:27:59.078Z,4.31
2018-03-24T21:30:26.566Z,4.32
2018-03-24T21:32:54.008Z,4.32
2018-03-24T21:35:21.463Z,4.26
2018-03-24T21:37:48.921Z,4.22
2018-03-24T21:40:16.381Z,4.17
2018-03-24T21:42:43.831Z,4.14
2018-03-24T21:45:11.259Z,4.14
2018-03-24T21:47:38.731Z,4.07
2018-03-24T21:50:06.193Z,4.02
2018-03-24T21:52:33.641Z,3.98
2018-03-24T21:55:01.086Z,3.95
2018-03-24T21:57:28.560Z,3.89
2018-03-24T21:59:55.999Z,3.84
2018-03-24T22:02:23.448Z,3.77
2018-03-24T22:04:50.889Z,3.72
2018-03-24T22:07:18.346Z,3.67
2018-03-24T22:09:45.796Z,3.60
2018-03-24T22:12:13.240Z,3.67
2018-03-24T22:14:40.690Z,3.62
2018-03-24T22:17:08.135Z,3.59
2018-03-24T22:19:35.594Z,3.59
2018-03-24T22:22:03.044Z,3.62
2018-03-24T22:24:30.522Z,3.58
2018-03-24T22:26:58.315Z,3.58
2018-03-24T22:29:26.167Z,3.52
2018-03-24T22:31:53.798Z,3.44
2018-03-24T22:34:21.425Z,3.44
2018-03-24T22:36:48.934Z,3.36
2018-03-24T22:39:16.501Z,3.23
2018-03-24T22:41:43.975Z,3.23
2018-03-24T22:44:11.409Z,3.12
2018-03-24T22:46:38.856Z,3.12
2018-03-24T22:49:06.295Z,3.05
2018-03-24T22:51:33.809Z,2.99
2018-03-24T22:54:01.434Z,2.96
2018-03-24T22:56:29.044Z,2.92
2018-03-24T22:58:56.519Z,2.91
2018-03-24T23:01:23.950Z,2.85
2018-03-24T23:03:51.733Z,2.79
2018-03-24T23:06:19.167Z,2.79
2018-03-24T23:08:46.621Z,2.82
2018-03-24T23:11:15.769Z,2.74
2018-03-24T23:13:45.963Z,2.75
2018-03-24T23:16:16.524Z,2.71
2018-03-24T23:18:44.090Z,2.63
2018-03-24T23:21:13.588Z,2.60
2018-03-24T23:23:41.076Z,2.56
2018-03-24T23:26:08.525Z,2.54
2018-03-24T23:28:35.970Z,2.49
2018-03-24T23:31:03.414Z,2.44
2018-03-24T23:33:30.863Z,2.41
2018-03-24T23:35:58.312Z,2.34
2018-03-24T23:38:25.759Z,2.31
2018-03-24T23:40:53.203Z,2.27
2018-03-24T23:43:20.699Z,2.23
2018-03-24T23:45:48.153Z,2.24
2018-03-24T23:48:15.610Z,2.17
2018-03-24T23:50:43.050Z,2.13
2018-03-24T23:53:10.572Z,2.12
2018-03-24T23:55:38.030Z,2.11
2018-03-24T23:58:05.963Z,2.09
